EDDEEDDN

Guest
Details From EDDE - Erfurt
To EDDN - Nurnberg
Flight Number -
Tags decoded
Created
Modified
Stats Distance 113 nm / 209 km
Max Altitude 0 ft / 0 m
Waypoints 6
Social Downloads 0
Likes 0
Share VATSIM

Download

Looking for another format? Having issues loading an existing format? Contact us
Advertisement - Login to hide

Notes

Requested: EDDE ENORO BAMKI VAGAB RATIP IBAGA REKDI DN430 EDDN Unmatched points: ENORO REKDI

Route

EDDE BAMKI VAGAB RATIP DN430 EDDN

ID Type Via Altitude Latitude Longitude Leg Dist Tot Dist Heading (true) Name
O EDDE APT - 0 ft / 0 m 50.97981˚ 10.95810˚ - 0 nm - Erfurt
BAMKI FIX - 0 ft / 0 m 50.71806˚ 11.02028˚ 15 nm 15 nm 171° / 171° -
VAGAB FIX - 0 ft / 0 m 50.53278˚ 10.81694˚ 13 nm 29 nm 215° / 215° -
RATIP FIX - 0 ft / 0 m 50.07528˚ 10.82445˚ 27 nm 56 nm 179° / 179° -
DN430 FIX - 0 ft / 0 m 49.55314˚ 10.50927˚ 33 nm 90 nm 201° / 201° -
O EDDN APT - 0 ft / 0 m 49.49874˚ 11.07758˚ 22 nm 112 nm 98° / 99° Nurnberg

Altitude Profile

Advertisement - Login to hide

EDDE

Details ICAO EDDE (ERF)
Name Erfurt
Region Germany - Civil
Timezone Europe/Berlin (UTC+1.0)
Stats Elevation 1,035 ft / 315 m (AMSL)
Location 50.979808° 10.958105°
Runways 1
Magnetic Variation 3.024° E

METAR

EDDE 131120Z 20019G30KT 9999 FEW026 SCT033 BKN300 03/M02 Q1007 NOSIG

Decode

TAF

TAF TAF EDDE 130500Z 1306/1406 21011KT 9999 FEW030 BECMG 1308/1311 21015G25KT TEMPO 1312/1406 21020G35KT PROB30 TEMPO 1315/1318 4500 -RASN

Decode

Departure Runways

ID Width Length Bearing (true) Bearing (mag) Surface Threshold Offset Overrun Length
10 164 ft / 50 m 8,523 ft / 2,598 m 98.24° 95.22° Asphalt 0 ft / 0 m 0 ft / 0 m
28 164 ft / 50 m 8,523 ft / 2,598 m 278.27° 275.25° Asphalt 656 ft / 200 m 0 ft / 0 m

EDDN

Details ICAO EDDN (NUE)
Name Nurnberg
Region Germany - Civil
Timezone Europe/Berlin (UTC+1.0)
Stats Elevation 1,045 ft / 319 m (AMSL)
Location 49.498744° 11.077580°
Runways 1
Magnetic Variation 3.018° E

METAR

EDDN 131120Z 17011KT CAVOK 04/M02 Q1012 NOSIG

Decode

TAF

TAF TAF EDDN 130500Z 1306/1406 17005KT 9999 SCT030 BECMG 1309/1311 17010KT BECMG 1316/1318 18015G25KT 2500 -SN BKN012 BECMG 1318/1320 17010KT 9000 BKN030 TEMPO 1320/1406 22015G25KT RA

Decode

Destination Runways

ID Width Length Bearing (true) Bearing (mag) Surface Threshold Offset Overrun Length
10 148 ft / 45 m 8,819 ft / 2,688 m 98.60° 95.58° Asphalt 0 ft / 0 m 0 ft / 0 m
28 148 ft / 45 m 8,819 ft / 2,688 m 278.63° 275.61° Asphalt 0 ft / 0 m 0 ft / 0 m

Approach Navaids

Runway Type Ident Frequency Range Bearing (true) Bearing (mag) Slope Elevation
10 Localiser INUE 111.30 MHz 18 nm / 33 km 98.64° 95.62° - 1,046 ft / 319 m (AMSL)
10 Glidescope INUE 111.30 MHz 10 nm / 19 km 98.61° 95.60° 3.00° 1,022 ft / 312 m (AMSL)
28 Localiser INUW 109.10 MHz 23 nm / 43 km 278.59° 275.57° - 1,122 ft / 342 m (AMSL)
28 Glidescope INUW 109.10 MHz 10 nm / 19 km 278.62° 275.60° 3.00° 1,046 ft / 319 m (AMSL)

Popular Alternatives